createdAt,value
2022-10-08T00:01:29.792Z,0.10
2022-10-08T00:04:06.556Z,0.20
2022-10-08T00:06:34.382Z,1.13
2022-10-08T00:09:03.576Z,0.10
2022-10-08T00:11:33.976Z,0.25
2022-10-08T00:14:02.910Z,0.10
2022-10-08T00:16:35.064Z,0.10
2022-10-08T00:19:09.693Z,0.10
2022-10-08T00:21:39.777Z,0.10
2022-10-08T00:24:09.425Z,0.20
2022-10-08T00:26:43.385Z,0.20
2022-10-08T00:29:13.483Z,0.10
2022-10-08T00:31:44.202Z,2.00
2022-10-08T00:34:15.664Z,0.85
2022-10-08T00:36:43.834Z,0.10
2022-10-08T00:39:14.003Z,0.20
2022-10-08T00:41:42.624Z,0.10
2022-10-08T00:44:50.070Z,0.38
2022-10-08T00:47:20.058Z,0.10
2022-10-08T00:49:51.377Z,0.10
2022-10-08T00:52:20.680Z,0.10
2022-10-08T00:54:50.108Z,0.22
2022-10-08T00:57:18.572Z,0.10
2022-10-08T00:59:46.466Z,0.30
2022-10-08T01:02:16.320Z,0.45
2022-10-08T01:04:45.130Z,0.10
2022-10-08T01:07:23.075Z,0.10
2022-10-08T01:09:58.836Z,0.65
2022-10-08T01:12:41.515Z,0.10
2022-10-08T01:15:17.195Z,1.23
2022-10-08T01:17:52.281Z,0.10
2022-10-08T01:20:32.900Z,0.73
2022-10-08T01:23:19.532Z,0.15
2022-10-08T01:25:56.672Z,0.10
2022-10-08T01:28:32.575Z,0.10
2022-10-08T01:31:07.875Z,0.68
2022-10-08T01:33:42.818Z,0.35
2022-10-08T01:36:13.073Z,0.10
2022-10-08T01:38:45.671Z,0.40
2022-10-08T01:41:16.831Z,1.20
2022-10-08T01:43:50.904Z,0.20
2022-10-08T01:46:23.685Z,2.30
2022-10-08T01:48:54.180Z,0.15
2022-10-08T01:51:25.615Z,0.10
2022-10-08T01:53:54.069Z,0.20
2022-10-08T01:56:25.816Z,0.52
2022-10-08T01:58:59.092Z,0.32
2022-10-08T02:01:34.245Z,0.22
2022-10-08T02:04:19.325Z,0.13
2022-10-08T02:06:53.033Z,0.10
2022-10-08T02:09:21.060Z,0.15
2022-10-08T02:11:48.592Z,0.10
2022-10-08T02:14:17.594Z,0.63
2022-10-08T02:16:51.048Z,0.30
2022-10-08T02:19:27.849Z,0.10
2022-10-08T02:21:58.660Z,0.10
2022-10-08T02:24:31.419Z,2.00
2022-10-08T02:27:02.519Z,0.10
2022-10-08T02:29:37.554Z,0.20
2022-10-08T02:32:11.224Z,0.40
2022-10-08T02:34:42.541Z,0.10
2022-10-08T02:37:14.132Z,0.10
2022-10-08T02:39:47.538Z,0.10
2022-10-08T02:42:21.271Z,0.10
2022-10-08T02:44:54.131Z,0.10
2022-10-08T02:47:25.915Z,0.20
2022-10-08T02:49:57.360Z,1.75
2022-10-08T02:52:29.035Z,0.13
2022-10-08T02:55:02.692Z,0.40
2022-10-08T02:57:35.180Z,0.45
2022-10-08T03:00:04.949Z,0.10
2022-10-08T03:02:37.389Z,0.10
2022-10-08T03:05:09.716Z,0.10
2022-10-08T03:07:37.220Z,0.10
2022-10-08T03:10:06.924Z,0.10
2022-10-08T03:12:35.267Z,0.10
2022-10-08T03:15:04.660Z,0.10
2022-10-08T03:17:36.776Z,0.30
2022-10-08T03:20:05.881Z,0.10
2022-10-08T03:22:34.603Z,0.10
2022-10-08T03:25:02.109Z,0.20
2022-10-08T03:27:29.546Z,0.10
2022-10-08T03:29:57.854Z,0.10
2022-10-08T03:32:28.147Z,0.10
2022-10-08T03:34:55.589Z,0.28
2022-10-08T03:37:23.053Z,0.00
2022-10-08T03:39:50.491Z,0.10
2022-10-08T03:42:17.952Z,0.10
2022-10-08T03:44:45.448Z,0.10
2022-10-08T03:47:12.905Z,0.10
2022-10-08T03:49:41.836Z,0.10
2022-10-08T03:52:09.399Z,0.10
2022-10-08T03:54:37.696Z,0.10
2022-10-08T03:57:05.707Z,0.10
2022-10-08T03:59:33.165Z,0.13
2022-10-08T04:02:00.870Z,0.00
2022-10-08T04:04:28.476Z,0.20
2022-10-08T04:06:57.433Z,0.10
2022-10-08T04:09:26.295Z,0.10
2022-10-08T04:11:53.720Z,0.10
2022-10-08T04:14:21.201Z,0.10
2022-10-08T04:16:48.976Z,0.03
2022-10-08T04:19:17.463Z,0.00
2022-10-08T04:21:44.932Z,0.13
2022-10-08T04:24:14.007Z,0.20
2022-10-08T04:26:41.500Z,1.25
2022-10-08T04:29:08.931Z,0.00
2022-10-08T04:31:36.393Z,0.00
2022-10-08T04:34:03.841Z,0.00
2022-10-08T04:36:31.376Z,0.20
2022-10-08T04:38:58.833Z,0.10
2022-10-08T04:41:28.508Z,0.10
2022-10-08T04:44:00.024Z,0.00
2022-10-08T04:46:27.948Z,0.47
2022-10-08T04:48:57.273Z,0.00
2022-10-08T04:51:26.497Z,0.00
2022-10-08T04:53:54.997Z,0.10
2022-10-08T04:56:24.065Z,0.10
2022-10-08T04:58:54.975Z,0.00
2022-10-08T05:01:23.821Z,0.10
2022-10-08T05:03:53.511Z,1.52
2022-10-08T05:06:22.833Z,1.10
2022-10-08T05:08:50.839Z,0.10
2022-10-08T05:11:19.346Z,0.13
2022-10-08T05:13:50.861Z,2.10
2022-10-08T05:16:19.941Z,2.03
2022-10-08T05:18:48.261Z,2.03
2022-10-08T05:21:17.665Z,0.47
2022-10-08T05:23:45.309Z,0.40
2022-10-08T05:26:15.569Z,1.23
2022-10-08T05:28:43.259Z,0.40
2022-10-08T05:31:10.909Z,1.33
2022-10-08T05:33:39.940Z,0.80
2022-10-08T05:36:09.698Z,2.25
2022-10-08T05:38:37.269Z,2.28
2022-10-08T05:41:12.816Z,1.42
2022-10-08T05:43:40.499Z,1.38
2022-10-08T05:46:07.983Z,1.42
2022-10-08T05:48:35.623Z,1.45
2022-10-08T05:51:09.150Z,0.60
2022-10-08T05:53:37.560Z,0.30
2022-10-08T05:56:07.349Z,1.20
2022-10-08T05:58:36.644Z,1.85
2022-10-08T06:01:07.046Z,0.80
2022-10-08T06:03:34.752Z,0.00
2022-10-08T06:06:04.332Z,0.70
2022-10-08T06:08:33.879Z,0.13
2022-10-08T06:11:01.803Z,0.38
2022-10-08T06:13:29.247Z,0.10
2022-10-08T06:15:57.273Z,0.65
2022-10-08T06:18:25.284Z,0.77
2022-10-08T06:20:53.309Z,0.35
2022-10-08T06:23:21.741Z,0.10
2022-10-08T06:25:50.984Z,0.10
2022-10-08T06:28:18.957Z,0.20
2022-10-08T06:30:46.494Z,0.50
2022-10-08T06:33:16.222Z,0.22
2022-10-08T06:35:43.674Z,0.00
2022-10-08T06:38:11.122Z,0.00
2022-10-08T06:40:39.974Z,0.47
2022-10-08T06:43:13.065Z,0.00
2022-10-08T06:48:08.250Z,0.03
2022-10-08T06:50:36.901Z,0.03
2022-10-08T06:53:05.337Z,0.00
2022-10-08T06:55:33.063Z,1.00
2022-10-08T06:58:00.699Z,0.00
2022-10-08T07:00:30.262Z,0.00
2022-10-08T07:02:57.929Z,0.00
2022-10-08T07:05:25.763Z,0.20
2022-10-08T07:07:53.191Z,0.00
2022-10-08T07:10:20.632Z,0.00
2022-10-08T07:12:48.384Z,0.00
2022-10-08T07:15:16.165Z,0.00
2022-10-08T07:17:44.947Z,0.00
2022-10-08T07:20:12.392Z,0.75
2022-10-08T07:22:39.836Z,0.00
2022-10-08T07:25:07.861Z,0.10
2022-10-08T07:27:35.295Z,0.98
2022-10-08T07:30:02.753Z,0.13
2022-10-08T07:32:30.183Z,0.17
2022-10-08T07:35:00.096Z,0.00
2022-10-08T07:37:27.715Z,0.00
2022-10-08T07:39:55.204Z,0.00
2022-10-08T07:42:22.641Z,1.45
2022-10-08T07:45:01.692Z,0.13
2022-10-08T07:47:29.217Z,0.55
2022-10-08T07:49:58.767Z,0.88
2022-10-08T07:53:24.691Z,1.10
2022-10-08T07:56:50.704Z,1.27
2022-10-08T08:00:16.773Z,1.35
2022-10-08T08:03:43.077Z,2.47
2022-10-08T08:07:11.555Z,2.13
2022-10-08T08:10:37.680Z,1.25
2022-10-08T08:14:03.820Z,3.70
2022-10-08T08:17:29.812Z,5.65
2022-10-08T08:20:59.079Z,4.28
2022-10-08T08:24:29.117Z,5.25
2022-10-08T08:27:55.109Z,3.60
2022-10-08T08:30:22.590Z,5.35
2022-10-08T08:32:50.379Z,5.38
2022-10-08T08:35:17.998Z,4.97
2022-10-08T08:37:45.609Z,6.57
2022-10-08T08:40:14.477Z,8.10
2022-10-08T08:42:54.430Z,6.80
2022-10-08T08:45:46.030Z,6.07
2022-10-08T08:48:22.159Z,6.47
2022-10-08T08:50:51.426Z,6.43
2022-10-08T08:53:19.737Z,2.75
2022-10-08T08:55:51.360Z,3.90
2022-10-08T08:58:25.603Z,3.10
2022-10-08T09:00:57.430Z,3.65
2022-10-08T09:03:29.207Z,2.13
2022-10-08T09:06:01.053Z,1.55
2022-10-08T09:08:32.885Z,2.13
2022-10-08T09:11:03.211Z,4.97
2022-10-08T09:13:36.855Z,5.13
2022-10-08T09:16:04.497Z,1.65
2022-10-08T09:18:33.593Z,1.13
2022-10-08T09:21:01.064Z,1.00
2022-10-08T09:23:28.551Z,4.00
2022-10-08T09:26:01.545Z,4.53
2022-10-08T09:28:42.815Z,3.58
2022-10-08T09:31:29.982Z,2.88
2022-10-08T09:35:07.991Z,0.95
2022-10-08T09:37:56.551Z,1.95
2022-10-08T09:40:25.853Z,2.80
2022-10-08T09:43:28.160Z,3.40
2022-10-08T09:45:57.872Z,2.25
2022-10-08T09:48:27.133Z,1.80
2022-10-08T09:51:00.976Z,1.60
2022-10-08T09:53:43.979Z,1.10
2022-10-08T09:56:40.169Z,1.90
2022-10-08T09:59:18.200Z,3.65
2022-10-08T10:02:36.976Z,4.68
2022-10-08T10:05:40.916Z,1.08
2022-10-08T10:08:43.095Z,3.35
2022-10-08T10:11:13.880Z,1.02
2022-10-08T10:13:47.701Z,1.35
2022-10-08T10:16:19.860Z,2.00
2022-10-08T10:18:56.442Z,1.10
2022-10-08T10:21:31.627Z,0.98
2022-10-08T10:24:06.704Z,1.02
2022-10-08T10:26:37.995Z,0.63
2022-10-08T10:29:11.177Z,1.42
2022-10-08T10:31:44.249Z,0.70
2022-10-08T10:36:44.909Z,1.02
2022-10-08T10:39:31.889Z,0.88
2022-10-08T10:42:07.389Z,2.72
2022-10-08T10:44:52.022Z,2.20
2022-10-08T10:47:22.495Z,1.02
2022-10-08T10:49:52.293Z,0.63
2022-10-08T10:52:42.915Z,0.63
2022-10-08T10:55:21.698Z,2.05
2022-10-08T10:58:08.481Z,2.00
2022-10-08T11:00:44.022Z,2.80
2022-10-08T11:03:20.142Z,2.00
2022-10-08T11:05:55.752Z,2.40
2022-10-08T11:08:35.905Z,0.95
2022-10-08T11:13:58.379Z,0.10
2022-10-08T11:16:39.109Z,2.03
2022-10-08T11:19:17.712Z,1.35
2022-10-08T11:21:59.360Z,1.67
2022-10-08T11:24:44.079Z,0.80
2022-10-08T11:27:22.967Z,1.08
2022-10-08T11:29:59.888Z,0.65
2022-10-08T11:32:29.797Z,1.00
2022-10-08T11:35:13.350Z,3.13
2022-10-08T11:37:47.392Z,0.57
2022-10-08T11:40:23.963Z,1.08
2022-10-08T11:43:01.831Z,1.23
2022-10-08T11:45:39.760Z,1.85
2022-10-08T11:48:33.529Z,0.63
2022-10-08T11:51:28.947Z,0.52
2022-10-08T11:54:09.469Z,1.10
2022-10-08T11:56:39.657Z,0.95
2022-10-08T11:59:27.569Z,0.35
2022-10-08T12:01:57.867Z,0.73
2022-10-08T12:04:30.597Z,0.32
2022-10-08T12:07:05.447Z,2.13
2022-10-08T12:10:02.860Z,2.35
2022-10-08T12:13:05.983Z,0.47
2022-10-08T12:15:57.018Z,0.52
2022-10-08T12:18:53.198Z,0.10
2022-10-08T12:21:51.393Z,0.43
2022-10-08T12:24:52.512Z,0.00
2022-10-08T12:27:41.301Z,0.57
2022-10-08T12:30:12.155Z,0.10
2022-10-08T12:32:56.806Z,1.58
2022-10-08T12:35:28.074Z,0.15
2022-10-08T12:38:14.495Z,0.15
2022-10-08T12:40:47.405Z,0.50
2022-10-08T12:46:00.273Z,0.30
2022-10-08T12:48:36.185Z,0.52
2022-10-08T12:51:20.228Z,1.00
2022-10-08T12:53:48.669Z,0.17
2022-10-08T12:56:19.502Z,0.40
2022-10-08T12:58:49.426Z,0.10
2022-10-08T13:01:20.713Z,0.57
2022-10-08T13:03:48.675Z,0.40
2022-10-08T13:06:24.563Z,0.80
2022-10-08T13:08:52.049Z,0.70
2022-10-08T13:11:19.800Z,1.48
2022-10-08T13:13:50.447Z,0.10
2022-10-08T13:16:20.563Z,0.10
2022-10-08T13:18:52.709Z,0.60
2022-10-08T13:21:35.917Z,1.30
2022-10-08T13:24:05.788Z,0.40
2022-10-08T13:26:43.771Z,0.00
2022-10-08T13:29:32.782Z,0.20
2022-10-08T13:32:02.076Z,0.10
2022-10-08T13:34:33.134Z,0.25
2022-10-08T13:37:02.640Z,0.00
2022-10-08T13:39:33.116Z,0.00
2022-10-08T13:42:02.860Z,0.13
2022-10-08T13:44:34.529Z,0.00
2022-10-08T13:47:03.846Z,0.47
2022-10-08T13:49:34.125Z,1.17
2022-10-08T13:52:02.511Z,1.48
2022-10-08T13:54:32.440Z,2.50
2022-10-08T13:57:00.608Z,0.40
2022-10-08T13:59:30.613Z,0.25
2022-10-08T14:01:59.764Z,0.00
2022-10-08T14:04:27.304Z,0.20
2022-10-08T14:06:57.191Z,0.32
2022-10-08T14:09:27.960Z,0.60
2022-10-08T14:11:59.162Z,0.00
2022-10-08T14:14:28.421Z,0.43
2022-10-08T14:16:55.889Z,0.38
2022-10-08T14:19:24.659Z,0.40
2022-10-08T14:21:55.922Z,0.63
2022-10-08T14:24:23.566Z,0.28
2022-10-08T14:26:50.990Z,0.10
2022-10-08T14:29:18.424Z,0.10
2022-10-08T14:31:45.963Z,0.20
2022-10-08T14:34:13.491Z,0.55
2022-10-08T14:36:43.030Z,0.75
2022-10-08T14:39:11.186Z,0.00
2022-10-08T14:41:42.884Z,0.20
2022-10-08T14:44:10.442Z,0.10
2022-10-08T14:46:37.863Z,0.75
2022-10-08T14:49:05.346Z,0.55
2022-10-08T14:51:38.384Z,0.00
2022-10-08T14:54:08.391Z,0.85
2022-10-08T14:56:37.652Z,0.30
2022-10-08T14:59:05.896Z,0.10
2022-10-08T15:01:34.315Z,0.50
2022-10-08T15:04:01.872Z,0.20
2022-10-08T15:06:29.439Z,0.73
2022-10-08T15:08:56.930Z,3.40
2022-10-08T15:11:25.830Z,0.90
2022-10-08T15:13:53.681Z,0.00
2022-10-08T15:16:21.167Z,1.10
2022-10-08T15:18:48.910Z,0.15
2022-10-08T15:21:16.367Z,0.35
2022-10-08T15:23:43.819Z,0.10
2022-10-08T15:26:14.599Z,0.68
2022-10-08T15:28:44.314Z,0.32
2022-10-08T15:31:14.648Z,0.43
2022-10-08T15:33:43.611Z,0.05
2022-10-08T15:36:18.796Z,0.10
2022-10-08T15:38:46.722Z,0.20
2022-10-08T15:41:17.125Z,0.75
2022-10-08T15:43:45.900Z,0.10
2022-10-08T15:46:16.494Z,0.00
2022-10-08T15:48:51.587Z,0.00
2022-10-08T15:51:19.207Z,0.00
2022-10-08T15:53:46.667Z,0.00
2022-10-08T15:56:14.129Z,0.15
2022-10-08T15:58:57.292Z,0.00
2022-10-08T16:01:26.699Z,0.10
2022-10-08T16:03:55.416Z,0.00
2022-10-08T16:06:24.921Z,0.00
2022-10-08T16:08:52.529Z,0.00
2022-10-08T16:11:21.813Z,0.10
2022-10-08T16:13:51.008Z,0.00
2022-10-08T16:16:19.184Z,0.57
2022-10-08T16:18:52.634Z,1.77
2022-10-08T16:21:21.176Z,0.38
2022-10-08T16:23:49.098Z,0.10
2022-10-08T16:26:20.788Z,0.25
2022-10-08T16:28:49.858Z,0.05
2022-10-08T16:31:18.220Z,0.40
2022-10-08T16:33:46.019Z,0.00
2022-10-08T16:36:15.385Z,0.08
2022-10-08T16:38:43.069Z,0.20
2022-10-08T16:41:15.380Z,0.20
2022-10-08T16:43:45.953Z,0.68
2022-10-08T16:46:15.483Z,0.25
2022-10-08T16:48:43.005Z,0.95
2022-10-08T16:51:11.524Z,0.00
2022-10-08T16:53:40.319Z,0.05
2022-10-08T16:56:07.748Z,0.10
2022-10-08T16:58:35.186Z,0.10
2022-10-08T17:01:07.341Z,0.22
2022-10-08T17:04:38.981Z,0.10
2022-10-08T17:07:07.281Z,0.88
2022-10-08T17:09:37.342Z,1.95
2022-10-08T17:12:05.384Z,0.22
2022-10-08T17:14:33.121Z,0.00
2022-10-08T17:17:04.959Z,0.32
2022-10-08T17:19:38.124Z,1.48
2022-10-08T17:24:47.492Z,0.10
2022-10-08T17:27:14.994Z,0.00
2022-10-08T17:29:42.455Z,0.10
2022-10-08T17:32:11.418Z,1.17
2022-10-08T17:35:30.809Z,0.47
2022-10-08T17:38:00.028Z,0.10
2022-10-08T17:40:30.191Z,0.10
2022-10-08T17:42:57.709Z,0.10
2022-10-08T17:45:27.577Z,0.32
2022-10-08T17:48:02.627Z,0.00
2022-10-08T17:50:30.823Z,0.10
2022-10-08T17:53:57.930Z,0.10
2022-10-08T17:56:44.847Z,0.10
2022-10-08T18:00:13.363Z,0.10
2022-10-08T18:03:30.525Z,0.10
2022-10-08T18:06:59.780Z,0.10
2022-10-08T18:09:32.143Z,0.10
2022-10-08T18:13:02.036Z,0.20
2022-10-08T18:16:28.426Z,0.00
2022-10-08T18:19:54.537Z,1.55
2022-10-08T18:23:20.749Z,0.10
2022-10-08T18:26:46.893Z,0.10
2022-10-08T18:30:14.902Z,0.10
2022-10-08T18:33:41.862Z,0.10
2022-10-08T18:37:09.481Z,0.10
2022-10-08T18:40:35.657Z,0.10
2022-10-08T18:44:04.367Z,0.10
2022-10-08T18:47:32.548Z,0.08
2022-10-08T18:51:02.725Z,0.10
2022-10-08T18:54:30.482Z,0.15
2022-10-08T18:57:56.488Z,0.10
2022-10-08T19:01:23.649Z,0.10
2022-10-08T19:04:51.672Z,0.10
2022-10-08T19:08:17.756Z,0.10
2022-10-08T19:11:45.373Z,0.10
2022-10-08T19:15:12.178Z,0.10
2022-10-08T19:18:38.129Z,0.20
2022-10-08T19:22:08.803Z,0.10
2022-10-08T19:25:35.792Z,0.10
2022-10-08T19:29:01.772Z,0.10
2022-10-08T19:32:28.957Z,0.10
2022-10-08T19:36:00.827Z,0.10
2022-10-08T19:39:30.200Z,0.10
2022-10-08T19:42:56.229Z,0.10
2022-10-08T19:46:17.290Z,0.30
2022-10-08T19:49:43.308Z,0.28
2022-10-08T19:53:09.624Z,0.43
2022-10-08T19:56:37.320Z,1.10
2022-10-08T20:00:03.290Z,0.10
2022-10-08T20:03:29.250Z,0.32
2022-10-08T20:06:55.187Z,0.55
2022-10-08T20:10:21.128Z,0.30
2022-10-08T20:13:49.162Z,0.10
2022-10-08T20:17:16.100Z,1.25
2022-10-08T20:20:42.043Z,0.10
2022-10-08T20:24:08.048Z,0.10
2022-10-08T20:27:35.042Z,0.10
2022-10-08T20:31:07.949Z,0.10
2022-10-08T20:34:33.928Z,0.10
2022-10-08T20:38:00.150Z,0.32
2022-10-08T20:40:46.476Z,0.10
2022-10-08T20:43:13.919Z,1.00
2022-10-08T20:45:42.681Z,0.20
2022-10-08T20:48:10.118Z,0.10
2022-10-08T20:50:37.529Z,0.55
2022-10-08T20:53:04.976Z,0.10
2022-10-08T20:55:32.424Z,0.30
2022-10-08T20:57:59.847Z,0.10
2022-10-08T21:00:27.345Z,0.10
2022-10-08T21:02:56.132Z,0.32
2022-10-08T21:05:23.577Z,0.57
2022-10-08T21:07:51.020Z,0.10
2022-10-08T21:10:21.970Z,0.45
2022-10-08T21:12:51.965Z,0.10
2022-10-08T21:15:19.423Z,0.10
2022-10-08T21:17:46.871Z,0.15
2022-10-08T21:20:15.713Z,0.10
2022-10-08T21:22:43.165Z,0.57
2022-10-08T21:25:10.765Z,0.10
2022-10-08T21:27:38.200Z,0.30
2022-10-08T21:30:06.539Z,0.25
2022-10-08T21:32:34.002Z,1.60
2022-10-08T21:35:01.430Z,0.75
2022-10-08T21:37:30.189Z,0.20
2022-10-08T21:39:57.619Z,0.10
2022-10-08T21:42:25.065Z,0.20
2022-10-08T21:44:52.486Z,0.63
2022-10-08T21:47:19.954Z,0.70
2022-10-08T21:49:47.479Z,0.10
2022-10-08T21:52:14.902Z,0.10
2022-10-08T21:54:43.687Z,0.00
2022-10-08T21:57:15.499Z,0.10
2022-10-08T21:59:43.754Z,0.10
2022-10-08T22:02:11.339Z,0.10
2022-10-08T22:04:38.810Z,0.10
2022-10-08T22:07:06.348Z,0.65
2022-10-08T22:09:34.852Z,0.20
2022-10-08T22:12:03.775Z,0.10
2022-10-08T22:14:31.290Z,0.10
2022-10-08T22:16:58.732Z,0.10
2022-10-08T22:19:26.181Z,0.10
2022-10-08T22:21:53.637Z,0.10
2022-10-08T22:24:21.101Z,0.75
2022-10-08T22:26:48.828Z,0.25
2022-10-08T22:29:17.812Z,0.10
2022-10-08T22:31:45.414Z,0.55
2022-10-08T22:34:13.001Z,0.40
2022-10-08T22:36:43.628Z,0.10
2022-10-08T22:39:11.675Z,0.20
2022-10-08T22:41:39.563Z,0.20
2022-10-08T22:44:07.065Z,0.20
2022-10-08T22:46:39.059Z,0.10
2022-10-08T22:49:08.908Z,0.30
2022-10-08T22:51:53.728Z,0.10
2022-10-08T22:54:21.155Z,0.10
2022-10-08T22:56:48.607Z,0.30
2022-10-08T22:59:16.044Z,0.50
2022-10-08T23:01:44.922Z,0.15
2022-10-08T23:04:12.396Z,0.50
2022-10-08T23:06:39.872Z,1.73
2022-10-08T23:09:09.420Z,1.38
2022-10-08T23:11:37.036Z,0.20
2022-10-08T23:14:05.842Z,1.10
2022-10-08T23:16:35.444Z,0.22
2022-10-08T23:19:06.392Z,1.02
2022-10-08T23:21:34.827Z,0.93
2022-10-08T23:24:03.006Z,0.43
2022-10-08T23:26:30.925Z,0.43
2022-10-08T23:29:00.402Z,0.73
2022-10-08T23:31:30.038Z,0.60
2022-10-08T23:33:58.412Z,0.70
2022-10-08T23:36:29.584Z,0.20
2022-10-08T23:38:57.357Z,1.77
2022-10-08T23:41:25.806Z,0.70
2022-10-08T23:43:54.842Z,0.10
2022-10-08T23:46:24.968Z,0.10
2022-10-08T23:48:53.394Z,0.10
2022-10-08T23:51:23.834Z,0.10
2022-10-08T23:53:53.547Z,0.10
2022-10-08T23:56:22.102Z,0.30
2022-10-08T23:58:49.658Z,0.20
